Avalon Express — WDD7919 — position and weather

sailwx.info

Track history (hours):
 
Tides and Currents Weather Stations Pressure Air Temp Water Temp Dewpoint Dewpoint Depression Visibility Wind Speed Wind Dir Waves Ship Positions

Avalon Express

Owner: RGWT INC, San Pedro, CA. More information available from US FCC via Universal Licensing System and Coast Guard Vessel Documentation Center.

Last reported at 2017-Nov-15 20:51 UTC. Time now 2017-Nov-18 11:42 UTC.
Position N 33°45' W 118°16'.

Type: High speed craft. MMSI: 367192940.

Date/timePositionNaut miles runAvg speedWind from/ knotsBaromVisibWave heightAir tempDewpointWater temp
2017-Nov-15 20:51N 33°45' W 118°16'612.3
2017-Nov-15 20:23N 33°39' W 118°17'819.7
2017-Nov-15 19:58N 33°34' W 118°24'8 7.3
2017-Nov-15 18:52N 33°28' W 118°30'719.1
2017-Nov-15 18:30N 33°32' W 118°23'1223.8
2017-Nov-15 18:00N 33°42' W 118°15'3 1.6
2017-Nov-15 15:53N 33°45' W 118°16'0 0.0
2017-Nov-15 15:29N 33°45' W 118°16'  
2017-Nov-13 01:11N 33°22' W 118°19'614.0
2017-Nov-13 00:45N 33°26' W 118°24'4 5.6
2017-Nov-12 23:57N 33°27' W 118°29'1226.2
2017-Nov-12 23:30N 33°36' W 118°20'6 1.8
2017-Nov-12 20:25N 33°40' W 118°15'1425.3
2017-Nov-12 19:51N 33°30' W 118°27'4 4.5
2017-Nov-12 19:01N 33°27' W 118°30'010.8
2017-Nov-12 19:00N 33°27' W 118°29'1011.7
2017-Nov-12 18:08N 33°21' W 118°19'325.5
2017-Nov-12 18:00N 33°25' W 118°18'4 0.1
2017-Nov-11 02:50N 33°21' W 118°19'0 0.4
2017-Nov-11 02:28N 33°21' W 118°19'23 0.7
2017-Nov-09 18:18N 33°25' W 117°52'9 0.6
2017-Nov-09 02:07N 33°28' W 117°42'5 9.3
2017-Nov-09 01:32N 33°26' W 117°48'126.4
2017-Nov-09 01:30N 33°26' W 117°49'1 0.1
2017-Nov-08 18:08N 33°26' W 117°50'426.1
2017-Nov-08 17:58N 33°26' W 117°45'3 0.2
2017-Nov-08 02:33N 33°28' W 117°42'0 0.3
2017-Nov-08 02:30N 33°28' W 117°42'0 0.0
2017-Nov-08 02:00N 33°28' W 117°42'613.1
2017-Nov-08 01:30N 33°25' W 117°49'2225.8
2017-Nov-08 00:40N 33°22' W 118°14'6 1.1
2017-Nov-07 19:48N 33°23' W 118°21'1011.6
2017-Nov-07 18:57N 33°28' W 118°31'1225.2
2017-Nov-07 18:29N 33°36' W 118°21'9 0.6
2017-Nov-07 02:43N 33°45' W 118°16'713.9
2017-Nov-07 02:15N 33°38' W 118°15'626.5
2017-Nov-07 02:00N 33°32' W 118°16'10 9.5
2017-Nov-07 00:58N 33°23' W 118°20'9 9.0
2017-Nov-07 00:01N 33°27' W 118°29'010.1
2017-Nov-07 00:00N 33°27' W 118°29'1624.8
2017-Nov-06 23:22N 33°39' W 118°17'17 0.8
2017-Nov-06 01:00N 33°22' W 118°19'  
Track history (hours):
 
Tides and Currents Weather Stations Pressure Air Temp Water Temp Dewpoint Dewpoint Depression Visibility Wind Speed Wind Dir Waves Ship Positions

Avalon Express

Owner: RGWT INC, San Pedro, CA. More information available from US FCC via Universal Licensing System and Coast Guard Vessel Documentation Center.

Last reported at 2017-Nov-15 20:51 UTC. Time now 2017-Nov-18 11:42 UTC.
Position N 33°45' W 118°16'.

Type: High speed craft. MMSI: 367192940.

Date/timePositionNaut miles runAvg speedWind from/ knotsBaromVisibWave heightAir tempDewpointWater temp
2017-Nov-15 20:51N 33°45' W 118°16'612.3
2017-Nov-15 20:23N 33°39' W 118°17'819.7
2017-Nov-15 19:58N 33°34' W 118°24'8 7.3
2017-Nov-15 18:52N 33°28' W 118°30'719.1
2017-Nov-15 18:30N 33°32' W 118°23'1223.8
2017-Nov-15 18:00N 33°42' W 118°15'3 1.6
2017-Nov-15 15:53N 33°45' W 118°16'0 0.0
2017-Nov-15 15:29N 33°45' W 118°16'  
2017-Nov-13 01:11N 33°22' W 118°19'614.0
2017-Nov-13 00:45N 33°26' W 118°24'4 5.6
2017-Nov-12 23:57N 33°27' W 118°29'1226.2
2017-Nov-12 23:30N 33°36' W 118°20'6 1.8
2017-Nov-12 20:25N 33°40' W 118°15'1425.3
2017-Nov-12 19:51N 33°30' W 118°27'4 4.5
2017-Nov-12 19:01N 33°27' W 118°30'010.8
2017-Nov-12 19:00N 33°27' W 118°29'1011.7
2017-Nov-12 18:08N 33°21' W 118°19'325.5
2017-Nov-12 18:00N 33°25' W 118°18'4 0.1
2017-Nov-11 02:50N 33°21' W 118°19'0 0.4
2017-Nov-11 02:28N 33°21' W 118°19'23 0.7
2017-Nov-09 18:18N 33°25' W 117°52'9 0.6
2017-Nov-09 02:07N 33°28' W 117°42'5 9.3
2017-Nov-09 01:32N 33°26' W 117°48'126.4
2017-Nov-09 01:30N 33°26' W 117°49'1 0.1
2017-Nov-08 18:08N 33°26' W 117°50'426.1
2017-Nov-08 17:58N 33°26' W 117°45'3 0.2
2017-Nov-08 02:33N 33°28' W 117°42'0 0.3
2017-Nov-08 02:30N 33°28' W 117°42'0 0.0
2017-Nov-08 02:00N 33°28' W 117°42'613.1
2017-Nov-08 01:30N 33°25' W 117°49'2225.8
2017-Nov-08 00:40N 33°22' W 118°14'6 1.1
2017-Nov-07 19:48N 33°23' W 118°21'1011.6
2017-Nov-07 18:57N 33°28' W 118°31'1225.2
2017-Nov-07 18:29N 33°36' W 118°21'9 0.6
2017-Nov-07 02:43N 33°45' W 118°16'713.9
2017-Nov-07 02:15N 33°38' W 118°15'626.5
2017-Nov-07 02:00N 33°32' W 118°16'10 9.5
2017-Nov-07 00:58N 33°23' W 118°20'9 9.0
2017-Nov-07 00:01N 33°27' W 118°29'010.1
2017-Nov-07 00:00N 33°27' W 118°29'1624.8
2017-Nov-06 23:22N 33°39' W 118°17'17 0.8
2017-Nov-06 01:00N 33°22' W 118°19'  

Dump ship's entire track history